sensor_id;sensor_type;location;lat;lon;timestamp;P1;durP1;ratioP1;P2;durP2;ratioP2
26325;SDS011;14032;52.510;7.342;2023-02-15T00:01:25;46.08;;;27.88;;
26325;SDS011;14032;52.510;7.342;2023-02-15T00:03:50;48.45;;;29.77;;
26325;SDS011;14032;52.510;7.342;2023-02-15T00:06:16;44.83;;;28.90;;
26325;SDS011;14032;52.510;7.342;2023-02-15T00:08:42;41.60;;;28.17;;
26325;SDS011;14032;52.510;7.342;2023-02-15T00:11:09;44.67;;;30.63;;
26325;SDS011;14032;52.510;7.342;2023-02-15T00:13:37;45.72;;;30.58;;
26325;SDS011;14032;52.510;7.342;2023-02-15T00:16:06;49.67;;;32.22;;
26325;SDS011;14032;52.510;7.342;2023-02-15T00:18:37;47.80;;;32.38;;
26325;SDS011;14032;52.510;7.342;2023-02-15T00:21:06;46.40;;;31.92;;
26325;SDS011;14032;52.510;7.342;2023-02-15T00:23:34;46.65;;;31.67;;
26325;SDS011;14032;52.510;7.342;2023-02-15T00:26:07;42.80;;;29.85;;
26325;SDS011;14032;52.510;7.342;2023-02-15T00:28:36;41.47;;;28.92;;
26325;SDS011;14032;52.510;7.342;2023-02-15T00:31:03;46.55;;;29.20;;
26325;SDS011;14032;52.510;7.342;2023-02-15T00:33:30;40.53;;;27.50;;
26325;SDS011;14032;52.510;7.342;2023-02-15T00:35:59;42.33;;;27.45;;
26325;SDS011;14032;52.510;7.342;2023-02-15T00:38:29;42.67;;;28.15;;
26325;SDS011;14032;52.510;7.342;2023-02-15T00:40:56;43.85;;;28.42;;
26325;SDS011;14032;52.510;7.342;2023-02-15T00:43:23;46.60;;;30.23;;
26325;SDS011;14032;52.510;7.342;2023-02-15T00:45:49;45.90;;;28.00;;
26325;SDS011;14032;52.510;7.342;2023-02-15T00:48:15;44.72;;;29.20;;
26325;SDS011;14032;52.510;7.342;2023-02-15T00:50:41;44.05;;;28.67;;
26325;SDS011;14032;52.510;7.342;2023-02-15T00:53:09;41.33;;;27.40;;
26325;SDS011;14032;52.510;7.342;2023-02-15T00:55:34;48.60;;;28.70;;
26325;SDS011;14032;52.510;7.342;2023-02-15T00:58:00;48.15;;;30.42;;
26325;SDS011;14032;52.510;7.342;2023-02-15T01:00:26;46.58;;;30.05;;
26325;SDS011;14032;52.510;7.342;2023-02-15T01:02:51;47.67;;;29.13;;
26325;SDS011;14032;52.510;7.342;2023-02-15T01:05:17;47.85;;;29.88;;
26325;SDS011;14032;52.510;7.342;2023-02-15T01:07:42;47.63;;;29.70;;
26325;SDS011;14032;52.510;7.342;2023-02-15T01:10:08;44.25;;;29.33;;
26325;SDS011;14032;52.510;7.342;2023-02-15T01:12:34;50.13;;;30.95;;
26325;SDS011;14032;52.510;7.342;2023-02-15T01:14:59;50.55;;;29.48;;
26325;SDS011;14032;52.510;7.342;2023-02-15T01:17:25;46.78;;;30.17;;
26325;SDS011;14032;52.510;7.342;2023-02-15T01:19:51;48.75;;;28.27;;
26325;SDS011;14032;52.510;7.342;2023-02-15T01:22:17;46.20;;;28.92;;
26325;SDS011;14032;52.510;7.342;2023-02-15T01:24:43;50.58;;;29.25;;
26325;SDS011;14032;52.510;7.342;2023-02-15T01:27:08;44.47;;;29.58;;
26325;SDS011;14032;52.510;7.342;2023-02-15T01:29:34;47.80;;;29.05;;
26325;SDS011;14032;52.510;7.342;2023-02-15T01:32:00;45.15;;;28.50;;
26325;SDS011;14032;52.510;7.342;2023-02-15T01:34:26;41.80;;;27.15;;
26325;SDS011;14032;52.510;7.342;2023-02-15T01:36:51;41.05;;;27.60;;
26325;SDS011;14032;52.510;7.342;2023-02-15T01:39:17;48.58;;;30.10;;
26325;SDS011;14032;52.510;7.342;2023-02-15T01:41:42;44.28;;;28.27;;
26325;SDS011;14032;52.510;7.342;2023-02-15T01:47:15;43.92;;;27.77;;
26325;SDS011;14032;52.510;7.342;2023-02-15T01:49:44;45.17;;;28.15;;
26325;SDS011;14032;52.510;7.342;2023-02-15T01:52:12;44.03;;;27.98;;
26325;SDS011;14032;52.510;7.342;2023-02-15T01:54:42;44.25;;;27.98;;
26325;SDS011;14032;52.510;7.342;2023-02-15T01:57:12;44.65;;;27.58;;
26325;SDS011;14032;52.510;7.342;2023-02-15T01:59:42;44.97;;;27.98;;
26325;SDS011;14032;52.510;7.342;2023-02-15T02:02:11;44.20;;;27.60;;
26325;SDS011;14032;52.510;7.342;2023-02-15T02:04:49;42.40;;;27.33;;
26325;SDS011;14032;52.510;7.342;2023-02-15T02:07:24;43.20;;;26.65;;
26325;SDS011;14032;52.510;7.342;2023-02-15T02:09:53;42.78;;;27.67;;
26325;SDS011;14032;52.510;7.342;2023-02-15T02:12:19;41.17;;;27.23;;
26325;SDS011;14032;52.510;7.342;2023-02-15T02:14:47;46.65;;;26.83;;
26325;SDS011;14032;52.510;7.342;2023-02-15T02:17:20;41.80;;;26.85;;
26325;SDS011;14032;52.510;7.342;2023-02-15T02:20:11;45.60;;;28.25;;
26325;SDS011;14032;52.510;7.342;2023-02-15T02:25:44;39.80;;;26.17;;
26325;SDS011;14032;52.510;7.342;2023-02-15T02:42:34;41.30;;;27.58;;
26325;SDS011;14032;52.510;7.342;2023-02-15T02:45:07;47.70;;;29.27;;
26325;SDS011;14032;52.510;7.342;2023-02-15T02:47:38;46.60;;;28.90;;
26325;SDS011;14032;52.510;7.342;2023-02-15T02:50:11;44.78;;;27.83;;
26325;SDS011;14032;52.510;7.342;2023-02-15T02:52:50;46.58;;;29.92;;
26325;SDS011;14032;52.510;7.342;2023-02-15T03:01:13;50.20;;;30.67;;
26325;SDS011;14032;52.510;7.342;2023-02-15T03:03:43;45.47;;;28.17;;
26325;SDS011;14032;52.510;7.342;2023-02-15T03:06:17;46.47;;;29.27;;
26325;SDS011;14032;52.510;7.342;2023-02-15T03:08:46;47.03;;;28.90;;
26325;SDS011;14032;52.510;7.342;2023-02-15T03:11:15;43.80;;;29.33;;
26325;SDS011;14032;52.510;7.342;2023-02-15T03:13:41;45.58;;;29.27;;
26325;SDS011;14032;52.510;7.342;2023-02-15T03:16:09;45.00;;;29.10;;
26325;SDS011;14032;52.510;7.342;2023-02-15T03:19:02;43.97;;;28.25;;
26325;SDS011;14032;52.510;7.342;2023-02-15T03:24:22;41.28;;;27.17;;
26325;SDS011;14032;52.510;7.342;2023-02-15T03:26:51;44.78;;;29.60;;
26325;SDS011;14032;52.510;7.342;2023-02-15T03:29:19;48.22;;;29.70;;
26325;SDS011;14032;52.510;7.342;2023-02-15T03:31:49;46.65;;;30.00;;
26325;SDS011;14032;52.510;7.342;2023-02-15T03:34:21;46.35;;;29.73;;
26325;SDS011;14032;52.510;7.342;2023-02-15T03:44:33;49.20;;;29.88;;
26325;SDS011;14032;52.510;7.342;2023-02-15T03:47:10;50.45;;;31.40;;
26325;SDS011;14032;52.510;7.342;2023-02-15T03:49:42;49.60;;;30.20;;
26325;SDS011;14032;52.510;7.342;2023-02-15T03:57:27;48.58;;;28.67;;
26325;SDS011;14032;52.510;7.342;2023-02-15T04:00:22;46.95;;;29.23;;
26325;SDS011;14032;52.510;7.342;2023-02-15T04:05:54;54.35;;;31.05;;
26325;SDS011;14032;52.510;7.342;2023-02-15T04:08:19;53.22;;;30.83;;
26325;SDS011;14032;52.510;7.342;2023-02-15T04:10:45;47.30;;;30.67;;
26325;SDS011;14032;52.510;7.342;2023-02-15T04:13:23;53.05;;;31.73;;
26325;SDS011;14032;52.510;7.342;2023-02-15T04:15:55;49.83;;;32.00;;
26325;SDS011;14032;52.510;7.342;2023-02-15T04:18:30;49.00;;;30.17;;
26325;SDS011;14032;52.510;7.342;2023-02-15T04:21:22;49.97;;;31.60;;
26325;SDS011;14032;52.510;7.342;2023-02-15T04:24:08;52.83;;;31.45;;
26325;SDS011;14032;52.510;7.342;2023-02-15T04:26:52;53.00;;;31.60;;
26325;SDS011;14032;52.510;7.342;2023-02-15T04:29:19;50.55;;;29.85;;
26325;SDS011;14032;52.510;7.342;2023-02-15T04:31:45;56.30;;;33.33;;
26325;SDS011;14032;52.510;7.342;2023-02-15T04:34:11;53.25;;;32.38;;
26325;SDS011;14032;52.510;7.342;2023-02-15T04:36:39;53.10;;;31.20;;
26325;SDS011;14032;52.510;7.342;2023-02-15T04:39:05;51.40;;;32.08;;
26325;SDS011;14032;52.510;7.342;2023-02-15T04:41:31;54.13;;;32.40;;
26325;SDS011;14032;52.510;7.342;2023-02-15T04:43:57;50.00;;;31.10;;
26325;SDS011;14032;52.510;7.342;2023-02-15T04:46:24;49.22;;;32.45;;
26325;SDS011;14032;52.510;7.342;2023-02-15T04:48:50;48.22;;;30.45;;
26325;SDS011;14032;52.510;7.342;2023-02-15T04:51:15;53.22;;;32.63;;
26325;SDS011;14032;52.510;7.342;2023-02-15T04:53:41;51.33;;;30.25;;
26325;SDS011;14032;52.510;7.342;2023-02-15T04:56:06;51.47;;;32.33;;
26325;SDS011;14032;52.510;7.342;2023-02-15T04:58:32;44.63;;;29.13;;
26325;SDS011;14032;52.510;7.342;2023-02-15T05:00:57;52.25;;;30.67;;
26325;SDS011;14032;52.510;7.342;2023-02-15T05:03:23;50.42;;;30.80;;
26325;SDS011;14032;52.510;7.342;2023-02-15T05:05:50;53.17;;;31.73;;
26325;SDS011;14032;52.510;7.342;2023-02-15T05:08:15;52.13;;;33.13;;
26325;SDS011;14032;52.510;7.342;2023-02-15T05:10:41;52.13;;;33.13;;
26325;SDS011;14032;52.510;7.342;2023-02-15T05:13:07;55.80;;;34.28;;
26325;SDS011;14032;52.510;7.342;2023-02-15T05:15:33;51.10;;;31.73;;
26325;SDS011;14032;52.510;7.342;2023-02-15T05:17:58;61.13;;;35.25;;
26325;SDS011;14032;52.510;7.342;2023-02-15T05:20:24;53.22;;;31.35;;
26325;SDS011;14032;52.510;7.342;2023-02-15T05:22:52;55.22;;;33.60;;
26325;SDS011;14032;52.510;7.342;2023-02-15T05:25:19;53.65;;;33.40;;
26325;SDS011;14032;52.510;7.342;2023-02-15T05:28:03;55.42;;;34.38;;
26325;SDS011;14032;52.510;7.342;2023-02-15T05:30:44;52.83;;;32.22;;
26325;SDS011;14032;52.510;7.342;2023-02-15T05:33:10;52.03;;;31.25;;
26325;SDS011;14032;52.510;7.342;2023-02-15T05:35:35;49.88;;;31.35;;
26325;SDS011;14032;52.510;7.342;2023-02-15T05:38:01;50.92;;;31.85;;
26325;SDS011;14032;52.510;7.342;2023-02-15T05:40:27;50.28;;;31.27;;
26325;SDS011;14032;52.510;7.342;2023-02-15T05:42:52;45.30;;;29.98;;
26325;SDS011;14032;52.510;7.342;2023-02-15T05:45:18;51.13;;;31.00;;
26325;SDS011;14032;52.510;7.342;2023-02-15T05:47:45;46.67;;;29.38;;
26325;SDS011;14032;52.510;7.342;2023-02-15T05:50:11;50.00;;;30.83;;
26325;SDS011;14032;52.510;7.342;2023-02-15T05:52:37;54.92;;;31.48;;
26325;SDS011;14032;52.510;7.342;2023-02-15T05:55:03;54.15;;;31.80;;
26325;SDS011;14032;52.510;7.342;2023-02-15T05:57:29;49.25;;;29.35;;
26325;SDS011;14032;52.510;7.342;2023-02-15T05:59:55;48.30;;;30.40;;
26325;SDS011;14032;52.510;7.342;2023-02-15T06:02:20;49.03;;;31.23;;
26325;SDS011;14032;52.510;7.342;2023-02-15T06:04:46;47.60;;;30.35;;
26325;SDS011;14032;52.510;7.342;2023-02-15T06:07:12;54.92;;;30.85;;
26325;SDS011;14032;52.510;7.342;2023-02-15T06:09:37;48.90;;;29.92;;
26325;SDS011;14032;52.510;7.342;2023-02-15T06:12:03;50.50;;;30.58;;
26325;SDS011;14032;52.510;7.342;2023-02-15T06:14:28;49.50;;;29.92;;
26325;SDS011;14032;52.510;7.342;2023-02-15T06:16:54;53.40;;;32.13;;
26325;SDS011;14032;52.510;7.342;2023-02-15T06:19:20;51.08;;;29.75;;
26325;SDS011;14032;52.510;7.342;2023-02-15T06:21:46;43.83;;;28.58;;
26325;SDS011;14032;52.510;7.342;2023-02-15T06:24:11;53.40;;;32.78;;
26325;SDS011;14032;52.510;7.342;2023-02-15T06:26:37;50.47;;;30.55;;
26325;SDS011;14032;52.510;7.342;2023-02-15T06:29:03;53.08;;;30.05;;
26325;SDS011;14032;52.510;7.342;2023-02-15T06:31:28;54.53;;;31.27;;
26325;SDS011;14032;52.510;7.342;2023-02-15T06:33:54;56.08;;;29.42;;
26325;SDS011;14032;52.510;7.342;2023-02-15T06:36:26;55.90;;;31.80;;
26325;SDS011;14032;52.510;7.342;2023-02-15T06:38:55;54.47;;;30.90;;
26325;SDS011;14032;52.510;7.342;2023-02-15T06:41:21;46.20;;;28.60;;
26325;SDS011;14032;52.510;7.342;2023-02-15T06:43:47;51.40;;;31.10;;
26325;SDS011;14032;52.510;7.342;2023-02-15T06:46:13;51.45;;;31.38;;
26325;SDS011;14032;52.510;7.342;2023-02-15T06:48:38;49.28;;;30.33;;
26325;SDS011;14032;52.510;7.342;2023-02-15T06:51:04;47.72;;;29.33;;
26325;SDS011;14032;52.510;7.342;2023-02-15T06:53:29;50.72;;;29.83;;
26325;SDS011;14032;52.510;7.342;2023-02-15T06:56:02;48.70;;;29.83;;
26325;SDS011;14032;52.510;7.342;2023-02-15T06:58:31;44.60;;;27.38;;
26325;SDS011;14032;52.510;7.342;2023-02-15T07:01:00;49.47;;;29.27;;
26325;SDS011;14032;52.510;7.342;2023-02-15T07:03:25;53.00;;;29.90;;
26325;SDS011;14032;52.510;7.342;2023-02-15T07:05:58;52.83;;;30.63;;
26325;SDS011;14032;52.510;7.342;2023-02-15T07:08:25;45.58;;;28.02;;
26325;SDS011;14032;52.510;7.342;2023-02-15T07:10:51;49.58;;;30.08;;
26325;SDS011;14032;52.510;7.342;2023-02-15T07:13:18;49.20;;;29.25;;
26325;SDS011;14032;52.510;7.342;2023-02-15T07:15:45;53.33;;;29.33;;
26325;SDS011;14032;52.510;7.342;2023-02-15T07:18:12;55.95;;;30.67;;
26325;SDS011;14032;52.510;7.342;2023-02-15T07:20:38;52.05;;;29.25;;
26325;SDS011;14032;52.510;7.342;2023-02-15T07:23:05;47.40;;;28.73;;
26325;SDS011;14032;52.510;7.342;2023-02-15T07:25:31;48.05;;;30.02;;
26325;SDS011;14032;52.510;7.342;2023-02-15T07:27:56;49.20;;;29.25;;
26325;SDS011;14032;52.510;7.342;2023-02-15T07:30:26;49.58;;;29.83;;
26325;SDS011;14032;52.510;7.342;2023-02-15T07:32:56;49.53;;;30.30;;
26325;SDS011;14032;52.510;7.342;2023-02-15T07:35:52;48.05;;;28.45;;
26325;SDS011;14032;52.510;7.342;2023-02-15T07:38:19;51.88;;;30.60;;
26325;SDS011;14032;52.510;7.342;2023-02-15T07:40:46;53.00;;;30.65;;
26325;SDS011;14032;52.510;7.342;2023-02-15T07:43:13;52.53;;;31.45;;
26325;SDS011;14032;52.510;7.342;2023-02-15T07:45:39;50.08;;;29.95;;
26325;SDS011;14032;52.510;7.342;2023-02-15T07:48:05;48.22;;;28.85;;
26325;SDS011;14032;52.510;7.342;2023-02-15T07:50:31;50.28;;;29.52;;
26325;SDS011;14032;52.510;7.342;2023-02-15T07:52:57;55.28;;;29.90;;
26325;SDS011;14032;52.510;7.342;2023-02-15T07:55:23;50.50;;;29.58;;
26325;SDS011;14032;52.510;7.342;2023-02-15T07:57:50;51.53;;;30.20;;
26325;SDS011;14032;52.510;7.342;2023-02-15T08:00:16;50.65;;;28.73;;
26325;SDS011;14032;52.510;7.342;2023-02-15T08:02:48;49.78;;;28.50;;
26325;SDS011;14032;52.510;7.342;2023-02-15T08:05:34;46.03;;;28.20;;
26325;SDS011;14032;52.510;7.342;2023-02-15T08:07:59;51.67;;;28.55;;
26325;SDS011;14032;52.510;7.342;2023-02-15T08:10:25;45.90;;;28.88;;
26325;SDS011;14032;52.510;7.342;2023-02-15T08:13:12;50.72;;;28.42;;
26325;SDS011;14032;52.510;7.342;2023-02-15T08:15:37;49.47;;;29.38;;
26325;SDS011;14032;52.510;7.342;2023-02-15T08:18:03;50.47;;;29.42;;
26325;SDS011;14032;52.510;7.342;2023-02-15T08:20:29;62.03;;;35.35;;
26325;SDS011;14032;52.510;7.342;2023-02-15T08:22:56;89.78;;;48.97;;
26325;SDS011;14032;52.510;7.342;2023-02-15T08:25:21;49.03;;;30.13;;
26325;SDS011;14032;52.510;7.342;2023-02-15T08:27:47;65.07;;;38.38;;
26325;SDS011;14032;52.510;7.342;2023-02-15T08:30:12;128.20;;;71.85;;
26325;SDS011;14032;52.510;7.342;2023-02-15T08:32:39;97.68;;;52.75;;
26325;SDS011;14032;52.510;7.342;2023-02-15T08:35:04;243.20;;;117.28;;
26325;SDS011;14032;52.510;7.342;2023-02-15T08:37:30;127.93;;;65.53;;
26325;SDS011;14032;52.510;7.342;2023-02-15T08:39:56;91.25;;;54.30;;
26325;SDS011;14032;52.510;7.342;2023-02-15T08:42:21;70.57;;;41.45;;
26325;SDS011;14032;52.510;7.342;2023-02-15T08:44:47;65.72;;;44.10;;
26325;SDS011;14032;52.510;7.342;2023-02-15T08:47:15;53.03;;;35.33;;
26325;SDS011;14032;52.510;7.342;2023-02-15T08:49:40;44.20;;;29.20;;
26325;SDS011;14032;52.510;7.342;2023-02-15T08:52:06;50.95;;;31.50;;
26325;SDS011;14032;52.510;7.342;2023-02-15T08:54:32;47.38;;;29.35;;
26325;SDS011;14032;52.510;7.342;2023-02-15T08:56:58;44.78;;;28.05;;
26325;SDS011;14032;52.510;7.342;2023-02-15T08:59:24;50.80;;;29.02;;
26325;SDS011;14032;52.510;7.342;2023-02-15T09:01:51;47.13;;;30.05;;
26325;SDS011;14032;52.510;7.342;2023-02-15T09:04:17;50.60;;;29.42;;
26325;SDS011;14032;52.510;7.342;2023-02-15T09:06:44;45.92;;;28.77;;
26325;SDS011;14032;52.510;7.342;2023-02-15T09:09:11;50.75;;;29.13;;
26325;SDS011;14032;52.510;7.342;2023-02-15T09:11:38;43.80;;;28.38;;
26325;SDS011;14032;52.510;7.342;2023-02-15T09:14:07;45.88;;;28.20;;
26325;SDS011;14032;52.510;7.342;2023-02-15T09:16:40;46.13;;;27.85;;
26325;SDS011;14032;52.510;7.342;2023-02-15T09:19:07;56.42;;;28.73;;
26325;SDS011;14032;52.510;7.342;2023-02-15T09:21:34;42.75;;;27.70;;
26325;SDS011;14032;52.510;7.342;2023-02-15T09:24:03;45.60;;;28.65;;
26325;SDS011;14032;52.510;7.342;2023-02-15T09:26:34;47.03;;;28.92;;
26325;SDS011;14032;52.510;7.342;2023-02-15T09:29:02;45.33;;;29.23;;
26325;SDS011;14032;52.510;7.342;2023-02-15T09:31:33;45.10;;;28.50;;
26325;SDS011;14032;52.510;7.342;2023-02-15T09:34:04;48.60;;;29.40;;
26325;SDS011;14032;52.510;7.342;2023-02-15T09:36:33;49.08;;;29.75;;
26325;SDS011;14032;52.510;7.342;2023-02-15T09:39:01;46.28;;;30.15;;
26325;SDS011;14032;52.510;7.342;2023-02-15T10:00:35;50.33;;;30.30;;
26325;SDS011;14032;52.510;7.342;2023-02-15T10:25:08;49.63;;;30.65;;
26325;SDS011;14032;52.510;7.342;2023-02-15T10:27:54;57.03;;;33.15;;
26325;SDS011;14032;52.510;7.342;2023-02-15T10:30:27;55.05;;;32.50;;
26325;SDS011;14032;52.510;7.342;2023-02-15T10:33:16;51.78;;;31.25;;
26325;SDS011;14032;52.510;7.342;2023-02-15T10:35:59;52.47;;;33.15;;
26325;SDS011;14032;52.510;7.342;2023-02-15T10:38:35;52.70;;;32.58;;
26325;SDS011;14032;52.510;7.342;2023-02-15T11:00:30;50.65;;;32.25;;
26325;SDS011;14032;52.510;7.342;2023-02-15T11:05:57;54.97;;;32.80;;
26325;SDS011;14032;52.510;7.342;2023-02-15T11:08:29;50.15;;;31.20;;
26325;SDS011;14032;52.510;7.342;2023-02-15T11:11:02;50.08;;;30.73;;
26325;SDS011;14032;52.510;7.342;2023-02-15T11:13:33;50.63;;;31.47;;
26325;SDS011;14032;52.510;7.342;2023-02-15T11:16:05;49.88;;;30.75;;
26325;SDS011;14032;52.510;7.342;2023-02-15T11:18:50;49.55;;;31.88;;
26325;SDS011;14032;52.510;7.342;2023-02-15T11:21:26;51.15;;;32.25;;
26325;SDS011;14032;52.510;7.342;2023-02-15T11:24:14;56.97;;;32.40;;
26325;SDS011;14032;52.510;7.342;2023-02-15T11:29:25;53.70;;;34.72;;
26325;SDS011;14032;52.510;7.342;2023-02-15T11:31:57;55.17;;;33.53;;
26325;SDS011;14032;52.510;7.342;2023-02-15T11:34:29;51.78;;;31.98;;
26325;SDS011;14032;52.510;7.342;2023-02-15T11:37:05;53.13;;;32.47;;
26325;SDS011;14032;52.510;7.342;2023-02-15T11:39:39;49.08;;;31.13;;
26325;SDS011;14032;52.510;7.342;2023-02-15T11:42:06;52.70;;;33.10;;
26325;SDS011;14032;52.510;7.342;2023-02-15T11:44:40;53.55;;;31.73;;
26325;SDS011;14032;52.510;7.342;2023-02-15T11:47:14;53.10;;;32.83;;
26325;SDS011;14032;52.510;7.342;2023-02-15T11:49:39;56.88;;;32.47;;
26325;SDS011;14032;52.510;7.342;2023-02-15T11:52:06;52.17;;;31.67;;
26325;SDS011;14032;52.510;7.342;2023-02-15T11:54:35;49.42;;;31.02;;
26325;SDS011;14032;52.510;7.342;2023-02-15T11:57:14;54.30;;;31.17;;
26325;SDS011;14032;52.510;7.342;2023-02-15T11:59:49;53.22;;;31.45;;
26325;SDS011;14032;52.510;7.342;2023-02-15T12:02:35;51.42;;;31.25;;
26325;SDS011;14032;52.510;7.342;2023-02-15T12:05:06;50.45;;;29.85;;
26325;SDS011;14032;52.510;7.342;2023-02-15T12:08:00;48.38;;;30.40;;
26325;SDS011;14032;52.510;7.342;2023-02-15T12:10:34;55.45;;;32.15;;
26325;SDS011;14032;52.510;7.342;2023-02-15T12:15:40;49.63;;;29.95;;
26325;SDS011;14032;52.510;7.342;2023-02-15T12:21:06;46.58;;;28.92;;
26325;SDS011;14032;52.510;7.342;2023-02-15T12:23:48;54.03;;;30.80;;
26325;SDS011;14032;52.510;7.342;2023-02-15T12:26:26;50.53;;;29.58;;
26325;SDS011;14032;52.510;7.342;2023-02-15T12:28:54;50.10;;;29.83;;
26325;SDS011;14032;52.510;7.342;2023-02-15T12:31:27;50.10;;;29.33;;
26325;SDS011;14032;52.510;7.342;2023-02-15T12:33:57;47.92;;;27.58;;
26325;SDS011;14032;52.510;7.342;2023-02-15T12:36:33;44.90;;;29.08;;
26325;SDS011;14032;52.510;7.342;2023-02-15T12:39:16;51.95;;;28.75;;
26325;SDS011;14032;52.510;7.342;2023-02-15T12:41:45;51.55;;;29.42;;
26325;SDS011;14032;52.510;7.342;2023-02-15T12:44:35;49.67;;;29.40;;
26325;SDS011;14032;52.510;7.342;2023-02-15T12:49:42;51.25;;;29.88;;
26325;SDS011;14032;52.510;7.342;2023-02-15T12:54:47;50.15;;;28.90;;
26325;SDS011;14032;52.510;7.342;2023-02-15T12:59:49;49.53;;;27.63;;
26325;SDS011;14032;52.510;7.342;2023-02-15T13:02:23;51.10;;;28.42;;
26325;SDS011;14032;52.510;7.342;2023-02-15T13:04:50;50.83;;;28.85;;
26325;SDS011;14032;52.510;7.342;2023-02-15T13:07:16;49.65;;;27.88;;
26325;SDS011;14032;52.510;7.342;2023-02-15T13:09:42;53.78;;;29.08;;
26325;SDS011;14032;52.510;7.342;2023-02-15T13:12:23;54.70;;;28.33;;
26325;SDS011;14032;52.510;7.342;2023-02-15T13:14:55;51.92;;;28.65;;
26325;SDS011;14032;52.510;7.342;2023-02-15T13:17:25;49.53;;;28.27;;
26325;SDS011;14032;52.510;7.342;2023-02-15T13:20:18;52.90;;;28.58;;
26325;SDS011;14032;52.510;7.342;2023-02-15T13:22:48;52.08;;;28.20;;
26325;SDS011;14032;52.510;7.342;2023-02-15T13:25:18;49.10;;;28.90;;
26325;SDS011;14032;52.510;7.342;2023-02-15T13:27:48;47.10;;;27.38;;
26325;SDS011;14032;52.510;7.342;2023-02-15T13:32:47;48.35;;;27.63;;
26325;SDS011;14032;52.510;7.342;2023-02-15T13:35:16;54.55;;;29.63;;
26325;SDS011;14032;52.510;7.342;2023-02-15T13:37:56;55.55;;;29.20;;
26325;SDS011;14032;52.510;7.342;2023-02-15T13:43:48;51.22;;;28.23;;
26325;SDS011;14032;52.510;7.342;2023-02-15T13:51:23;44.83;;;25.13;;
26325;SDS011;14032;52.510;7.342;2023-02-15T13:59:12;53.92;;;26.50;;
26325;SDS011;14032;52.510;7.342;2023-02-15T14:05:23;50.70;;;25.95;;
26325;SDS011;14032;52.510;7.342;2023-02-15T14:08:00;56.70;;;28.45;;
26325;SDS011;14032;52.510;7.342;2023-02-15T14:15:56;52.47;;;27.90;;
26325;SDS011;14032;52.510;7.342;2023-02-15T14:26:54;56.15;;;28.80;;
26325;SDS011;14032;52.510;7.342;2023-02-15T14:32:23;52.47;;;29.75;;
26325;SDS011;14032;52.510;7.342;2023-02-15T14:35:09;53.85;;;29.48;;
26325;SDS011;14032;52.510;7.342;2023-02-15T14:37:48;55.08;;;29.30;;
26325;SDS011;14032;52.510;7.342;2023-02-15T14:40:49;56.10;;;29.23;;
26325;SDS011;14032;52.510;7.342;2023-02-15T14:48:53;53.72;;;27.80;;
26325;SDS011;14032;52.510;7.342;2023-02-15T14:56:46;53.03;;;27.70;;
26325;SDS011;14032;52.510;7.342;2023-02-15T15:04:36;50.42;;;26.65;;
26325;SDS011;14032;52.510;7.342;2023-02-15T15:09:58;52.50;;;27.00;;
26325;SDS011;14032;52.510;7.342;2023-02-15T15:15:01;49.85;;;27.25;;
26325;SDS011;14032;52.510;7.342;2023-02-15T15:19:58;52.10;;;26.88;;
26325;SDS011;14032;52.510;7.342;2023-02-15T15:22:42;48.42;;;26.13;;
26325;SDS011;14032;52.510;7.342;2023-02-15T15:25:39;73.38;;;36.42;;
26325;SDS011;14032;52.510;7.342;2023-02-15T15:27:58;58.58;;;28.83;;
26325;SDS011;14032;52.510;7.342;2023-02-15T15:46:34;50.10;;;25.60;;
26325;SDS011;14032;52.510;7.342;2023-02-15T15:49:31;46.85;;;25.27;;
26325;SDS011;14032;52.510;7.342;2023-02-15T15:52:02;49.35;;;26.15;;
26325;SDS011;14032;52.510;7.342;2023-02-15T15:54:35;54.08;;;26.13;;
26325;SDS011;14032;52.510;7.342;2023-02-15T15:57:04;52.05;;;27.50;;
26325;SDS011;14032;52.510;7.342;2023-02-15T15:59:36;52.60;;;26.77;;
26325;SDS011;14032;52.510;7.342;2023-02-15T16:02:13;53.60;;;26.55;;
26325;SDS011;14032;52.510;7.342;2023-02-15T16:04:41;49.63;;;25.67;;
26325;SDS011;14032;52.510;7.342;2023-02-15T16:10:44;47.13;;;24.80;;
26325;SDS011;14032;52.510;7.342;2023-02-15T16:12:47;53.95;;;27.05;;
26325;SDS011;14032;52.510;7.342;2023-02-15T16:15:15;47.80;;;25.13;;
26325;SDS011;14032;52.510;7.342;2023-02-15T16:17:47;45.08;;;25.55;;
26325;SDS011;14032;52.510;7.342;2023-02-15T16:20:20;51.28;;;25.42;;
26325;SDS011;14032;52.510;7.342;2023-02-15T16:22:49;48.22;;;24.88;;
26325;SDS011;14032;52.510;7.342;2023-02-15T16:28:08;45.35;;;25.48;;
26325;SDS011;14032;52.510;7.342;2023-02-15T16:30:37;46.10;;;24.88;;
26325;SDS011;14032;52.510;7.342;2023-02-15T16:33:08;44.75;;;24.90;;
26325;SDS011;14032;52.510;7.342;2023-02-15T16:36:01;47.20;;;25.25;;
26325;SDS011;14032;52.510;7.342;2023-02-15T16:38:52;45.67;;;23.45;;
26325;SDS011;14032;52.510;7.342;2023-02-15T16:41:34;43.63;;;23.88;;
26325;SDS011;14032;52.510;7.342;2023-02-15T16:44:03;47.03;;;24.85;;
26325;SDS011;14032;52.510;7.342;2023-02-15T16:46:38;48.50;;;25.20;;
26325;SDS011;14032;52.510;7.342;2023-02-15T16:49:12;50.35;;;25.42;;
26325;SDS011;14032;52.510;7.342;2023-02-15T16:51:44;44.78;;;24.95;;
26325;SDS011;14032;52.510;7.342;2023-02-15T16:54:19;49.05;;;24.98;;
26325;SDS011;14032;52.510;7.342;2023-02-15T16:56:47;49.53;;;26.50;;
26325;SDS011;14032;52.510;7.342;2023-02-15T17:02:13;47.70;;;25.85;;
26325;SDS011;14032;52.510;7.342;2023-02-15T17:04:44;53.28;;;24.92;;
26325;SDS011;14032;52.510;7.342;2023-02-15T17:07:15;52.05;;;25.90;;
26325;SDS011;14032;52.510;7.342;2023-02-15T17:09:53;51.28;;;26.70;;
26325;SDS011;14032;52.510;7.342;2023-02-15T17:15:31;50.53;;;24.35;;
26325;SDS011;14032;52.510;7.342;2023-02-15T17:18:03;45.30;;;24.73;;
26325;SDS011;14032;52.510;7.342;2023-02-15T17:20:31;52.38;;;25.52;;
26325;SDS011;14032;52.510;7.342;2023-02-15T17:22:58;49.08;;;25.40;;
26325;SDS011;14032;52.510;7.342;2023-02-15T17:25:42;45.42;;;25.65;;
26325;SDS011;14032;52.510;7.342;2023-02-15T17:28:21;42.92;;;23.67;;
26325;SDS011;14032;52.510;7.342;2023-02-15T17:30:49;47.25;;;26.20;;
26325;SDS011;14032;52.510;7.342;2023-02-15T17:38:37;47.00;;;24.20;;
26325;SDS011;14032;52.510;7.342;2023-02-15T17:41:03;50.03;;;26.08;;
26325;SDS011;14032;52.510;7.342;2023-02-15T17:43:30;43.72;;;24.27;;
26325;SDS011;14032;52.510;7.342;2023-02-15T17:45:56;47.28;;;24.50;;
26325;SDS011;14032;52.510;7.342;2023-02-15T17:48:30;51.53;;;24.75;;
26325;SDS011;14032;52.510;7.342;2023-02-15T17:50:59;45.65;;;25.35;;
26325;SDS011;14032;52.510;7.342;2023-02-15T17:53:26;49.28;;;24.80;;
26325;SDS011;14032;52.510;7.342;2023-02-15T17:55:52;51.15;;;25.88;;
26325;SDS011;14032;52.510;7.342;2023-02-15T17:58:18;48.58;;;24.80;;
26325;SDS011;14032;52.510;7.342;2023-02-15T18:00:45;50.03;;;24.33;;
26325;SDS011;14032;52.510;7.342;2023-02-15T18:06:30;55.45;;;24.80;;
26325;SDS011;14032;52.510;7.342;2023-02-15T18:09:16;47.75;;;24.77;;
26325;SDS011;14032;52.510;7.342;2023-02-15T18:12:11;50.03;;;25.23;;
26325;SDS011;14032;52.510;7.342;2023-02-15T18:14:39;45.30;;;24.92;;
26325;SDS011;14032;52.510;7.342;2023-02-15T18:17:05;49.90;;;26.30;;
26325;SDS011;14032;52.510;7.342;2023-02-15T18:19:38;44.33;;;24.15;;
26325;SDS011;14032;52.510;7.342;2023-02-15T18:22:15;54.45;;;24.38;;